createdAt,value
2022-08-27T00:00:45.865Z,11.13
2022-08-27T00:02:47.880Z,13.07
2022-08-27T00:04:49.687Z,13.13
2022-08-27T00:06:51.768Z,12.50
2022-08-27T00:08:54.875Z,12.23
2022-08-27T00:10:56.766Z,12.48
2022-08-27T00:12:58.582Z,12.25
2022-08-27T00:15:00.532Z,14.00
2022-08-27T00:17:02.638Z,12.70
2022-08-27T00:19:04.735Z,14.25
2022-08-27T00:21:07.054Z,13.25
2022-08-27T00:23:08.899Z,12.82
2022-08-27T00:25:11.609Z,14.00
2022-08-27T00:27:13.431Z,13.80
2022-08-27T00:29:15.262Z,13.55
2022-08-27T00:31:17.526Z,14.65
2022-08-27T00:33:19.460Z,15.18
2022-08-27T00:35:21.277Z,14.73
2022-08-27T00:37:24.086Z,15.97
2022-08-27T00:39:26.109Z,14.75
2022-08-27T00:41:27.988Z,15.43
2022-08-27T00:43:43.151Z,16.30
2022-08-27T00:45:45.702Z,15.20
2022-08-27T00:47:52.573Z,14.52
2022-08-27T00:50:01.859Z,14.45
2022-08-27T00:52:12.064Z,14.60
2022-08-27T00:54:18.949Z,20.10
2022-08-27T00:56:29.248Z,16.95
2022-08-27T00:58:32.568Z,15.82
2022-08-27T01:00:34.808Z,14.48
2022-08-27T01:02:36.780Z,14.35
2022-08-27T01:04:40.824Z,15.38
2022-08-27T01:06:42.721Z,15.18
2022-08-27T01:08:50.912Z,13.57
2022-08-27T01:10:54.769Z,13.68
2022-08-27T01:12:57.289Z,14.07
2022-08-27T01:15:01.567Z,13.18
2022-08-27T01:17:06.231Z,14.63
2022-08-27T01:19:16.508Z,14.25
2022-08-27T01:21:30.887Z,14.85
2022-08-27T01:23:38.869Z,14.13
2022-08-27T01:25:44.400Z,14.95
2022-08-27T01:27:47.427Z,14.90
2022-08-27T01:29:49.542Z,14.23
2022-08-27T01:31:51.588Z,14.32
2022-08-27T01:33:59.390Z,13.82
2022-08-27T01:36:01.212Z,14.32
2022-08-27T01:38:03.244Z,13.13
2022-08-27T01:40:10.095Z,14.05
2022-08-27T01:42:22.966Z,13.43
2022-08-27T01:44:24.874Z,13.05
2022-08-27T01:46:28.931Z,14.15
2022-08-27T01:48:30.779Z,13.30
2022-08-27T01:50:36.329Z,14.20
2022-08-27T01:52:38.365Z,13.40
2022-08-27T01:54:40.357Z,14.30
2022-08-27T01:56:42.175Z,14.80
2022-08-27T01:58:43.997Z,15.55
2022-08-27T02:00:54.799Z,14.45
2022-08-27T02:02:59.251Z,14.82
2022-08-27T02:05:01.689Z,14.35
2022-08-27T02:07:04.425Z,14.40
2022-08-27T02:09:06.223Z,14.30
2022-08-27T02:11:08.618Z,13.57
2022-08-27T02:13:10.842Z,14.65
2022-08-27T02:15:13.541Z,14.18
2022-08-27T02:17:15.721Z,14.17
2022-08-27T02:19:17.762Z,14.05
2022-08-27T02:21:19.841Z,14.85
2022-08-27T02:23:21.720Z,15.13
2022-08-27T02:25:24.040Z,14.57
2022-08-27T02:27:25.846Z,15.07
2022-08-27T02:29:27.750Z,15.32
2022-08-27T02:31:29.632Z,14.93
2022-08-27T02:33:32.441Z,14.82
2022-08-27T02:35:36.913Z,15.20
2022-08-27T02:37:38.734Z,15.05
2022-08-27T02:39:44.227Z,14.88
2022-08-27T02:41:47.878Z,14.70
2022-08-27T02:43:50.040Z,14.43
2022-08-27T02:45:52.019Z,14.25
2022-08-27T02:47:54.266Z,14.60
2022-08-27T02:49:56.124Z,13.40
2022-08-27T02:51:58.768Z,14.65
2022-08-27T02:54:02.156Z,15.68
2022-08-27T02:56:05.951Z,14.13
2022-08-27T02:58:07.914Z,14.48
2022-08-27T03:00:13.291Z,15.70
2022-08-27T03:02:15.269Z,14.38
2022-08-27T03:04:18.351Z,13.68
2022-08-27T03:06:20.420Z,14.48
2022-08-27T03:08:22.286Z,14.10
2022-08-27T03:10:24.095Z,14.18
2022-08-27T03:12:25.903Z,15.23
2022-08-27T03:14:28.651Z,14.88
2022-08-27T03:16:30.548Z,15.13
2022-08-27T03:18:33.061Z,15.38
2022-08-27T03:20:39.028Z,14.57
2022-08-27T03:22:40.932Z,14.68
2022-08-27T03:24:42.777Z,13.70
2022-08-27T03:26:52.784Z,14.65
2022-08-27T03:28:56.099Z,13.93
2022-08-27T03:31:04.114Z,14.27
2022-08-27T03:33:05.941Z,14.90
2022-08-27T03:35:08.354Z,16.45
2022-08-27T03:37:10.227Z,15.77
2022-08-27T03:39:12.068Z,15.82
2022-08-27T03:41:14.043Z,15.93
2022-08-27T03:43:17.242Z,15.30
2022-08-27T03:45:19.145Z,15.13
2022-08-27T03:47:20.943Z,14.60
2022-08-27T03:49:23.359Z,14.85
2022-08-27T03:51:25.519Z,15.00
2022-08-27T03:53:27.318Z,14.13
2022-08-27T03:55:29.185Z,15.75
2022-08-27T03:57:31.560Z,14.65
2022-08-27T03:59:33.889Z,14.38
2022-08-27T04:01:36.120Z,14.13
2022-08-27T04:03:38.290Z,13.07
2022-08-27T04:05:40.322Z,14.35
2022-08-27T04:07:43.237Z,14.45
2022-08-27T04:09:45.231Z,14.82
2022-08-27T04:11:47.094Z,14.32
2022-08-27T04:13:48.907Z,12.57
2022-08-27T04:15:52.547Z,13.57
2022-08-27T04:19:56.282Z,13.57
2022-08-27T04:22:04.658Z,13.65
2022-08-27T04:24:06.590Z,13.40
2022-08-27T04:26:10.501Z,11.63
2022-08-27T04:28:13.836Z,13.00
2022-08-27T04:30:15.694Z,14.10
2022-08-27T04:32:17.537Z,12.65
2022-08-27T04:34:21.778Z,12.52
2022-08-27T04:36:23.724Z,13.05
2022-08-27T04:38:27.665Z,12.00
2022-08-27T04:40:29.538Z,12.27
2022-08-27T04:42:31.394Z,12.07
2022-08-27T04:44:33.737Z,12.32
2022-08-27T04:46:40.597Z,12.18
2022-08-27T04:48:42.506Z,12.85
2022-08-27T04:50:46.715Z,13.52
2022-08-27T04:52:48.520Z,14.30
2022-08-27T04:54:52.591Z,13.50
2022-08-27T04:56:54.587Z,12.98
2022-08-27T04:58:57.116Z,13.98
2022-08-27T05:00:59.036Z,12.65
2022-08-27T05:03:00.838Z,13.52
2022-08-27T05:05:02.752Z,15.05
2022-08-27T05:07:05.150Z,13.93
2022-08-27T05:09:07.186Z,13.88
2022-08-27T05:11:11.539Z,12.75
2022-08-27T05:13:14.558Z,12.60
2022-08-27T05:15:16.420Z,11.82
2022-08-27T05:17:18.248Z,10.85
2022-08-27T05:19:20.089Z,10.35
2022-08-27T05:21:27.039Z,10.65
2022-08-27T05:23:28.990Z,10.98
2022-08-27T05:25:30.810Z,10.35
2022-08-27T05:27:32.659Z,10.57
2022-08-27T05:29:34.465Z,10.65
2022-08-27T05:31:36.618Z,9.30
2022-08-27T05:33:39.812Z,9.30
2022-08-27T05:35:43.263Z,12.93
2022-08-27T05:39:46.741Z,9.20
2022-08-27T05:41:48.568Z,10.07
2022-08-27T05:43:50.800Z,9.95
2022-08-27T05:45:52.727Z,9.27
2022-08-27T05:47:54.574Z,9.40
2022-08-27T05:49:56.411Z,10.07
2022-08-27T05:51:58.215Z,9.32
2022-08-27T05:54:08.914Z,10.30
2022-08-27T05:56:19.877Z,9.50
2022-08-27T05:58:21.663Z,9.95
2022-08-27T06:00:24.086Z,10.05
2022-08-27T06:02:26.032Z,10.23
2022-08-27T06:04:27.939Z,9.57
2022-08-27T06:06:29.793Z,9.50
2022-08-27T06:08:31.931Z,10.25
2022-08-27T06:10:33.975Z,9.27
2022-08-27T06:12:35.774Z,11.85
2022-08-27T06:14:38.015Z,9.73
2022-08-27T06:16:41.274Z,9.68
2022-08-27T06:18:48.006Z,8.93
2022-08-27T06:20:49.822Z,9.45
2022-08-27T06:22:52.049Z,9.32
2022-08-27T06:24:53.866Z,9.05
2022-08-27T06:26:55.743Z,9.30
2022-08-27T06:29:03.282Z,9.20
2022-08-27T06:31:08.268Z,8.65
2022-08-27T06:33:10.128Z,8.65
2022-08-27T06:35:12.022Z,9.07
2022-08-27T06:37:13.852Z,8.50
2022-08-27T06:39:17.113Z,9.07
2022-08-27T06:41:23.488Z,8.90
2022-08-27T06:43:26.885Z,9.57
2022-08-27T06:45:28.683Z,8.77
2022-08-27T06:47:33.513Z,8.60
2022-08-27T06:49:35.366Z,8.35
2022-08-27T06:51:39.861Z,9.00
2022-08-27T06:53:42.153Z,8.02
2022-08-27T06:55:46.776Z,8.07
2022-08-27T06:57:48.626Z,7.63
2022-08-27T06:59:51.132Z,7.75
2022-08-27T07:01:53.146Z,8.30
2022-08-27T07:04:00.204Z,8.25
2022-08-27T07:06:06.638Z,8.30
2022-08-27T07:08:09.842Z,8.15
2022-08-27T07:12:13.458Z,8.77
2022-08-27T07:14:15.280Z,8.05
2022-08-27T07:16:23.265Z,8.38
2022-08-27T07:18:27.329Z,8.10
2022-08-27T07:20:29.794Z,8.20
2022-08-27T07:22:31.627Z,7.68
2022-08-27T07:24:33.477Z,8.05
2022-08-27T07:26:38.459Z,7.90
2022-08-27T07:28:41.891Z,8.18
2022-08-27T07:30:43.773Z,8.20
2022-08-27T07:32:46.639Z,8.07
2022-08-27T07:34:48.447Z,8.57
2022-08-27T07:36:50.293Z,8.95
2022-08-27T07:39:00.834Z,8.43
2022-08-27T07:41:09.138Z,9.32
2022-08-27T07:43:10.968Z,8.00
2022-08-27T07:45:12.819Z,7.57
2022-08-27T07:47:14.644Z,7.65
2022-08-27T07:49:17.814Z,7.70
2022-08-27T07:51:21.353Z,8.43
2022-08-27T07:53:23.233Z,7.70
2022-08-27T07:55:25.296Z,7.47
2022-08-27T07:57:27.185Z,8.93
2022-08-27T07:59:29.026Z,8.90
2022-08-27T08:01:30.920Z,8.10
2022-08-27T08:03:33.096Z,7.93
2022-08-27T08:05:35.259Z,7.72
2022-08-27T08:07:37.131Z,7.78
2022-08-27T08:09:38.985Z,7.97
2022-08-27T08:11:40.948Z,8.38
2022-08-27T08:13:44.110Z,8.57
2022-08-27T08:15:47.332Z,8.82
2022-08-27T08:20:08.769Z,10.35
2022-08-27T08:22:12.685Z,8.75
2022-08-27T08:24:14.537Z,9.20
2022-08-27T08:26:17.079Z,9.60
2022-08-27T08:28:18.926Z,8.63
2022-08-27T08:30:20.933Z,8.45
2022-08-27T08:32:22.734Z,8.43
2022-08-27T08:34:24.571Z,8.35
2022-08-27T08:36:26.371Z,7.50
2022-08-27T08:38:28.343Z,8.90
2022-08-27T08:40:37.368Z,8.50
2022-08-27T08:42:51.804Z,8.10
2022-08-27T08:44:54.928Z,8.23
2022-08-27T08:47:42.697Z,7.90
2022-08-27T08:50:03.543Z,8.15
2022-08-27T08:52:32.738Z,8.73
2022-08-27T08:54:35.145Z,8.05
2022-08-27T08:57:10.763Z,7.43
2022-08-27T08:59:31.676Z,8.32
2022-08-27T09:01:33.599Z,8.45
2022-08-27T09:03:38.279Z,8.23
2022-08-27T09:05:47.477Z,7.43
2022-08-27T09:10:42.894Z,8.88
2022-08-27T09:12:44.795Z,8.07
2022-08-27T09:15:02.898Z,8.63
2022-08-27T09:17:11.298Z,8.07
2022-08-27T09:19:13.449Z,8.70
2022-08-27T09:21:28.202Z,8.38
2022-08-27T09:23:42.346Z,8.50
2022-08-27T09:25:46.429Z,8.77
2022-08-27T09:27:49.716Z,8.57
2022-08-27T09:29:54.475Z,7.93
2022-08-27T09:32:08.009Z,8.90
2022-08-27T09:34:10.045Z,9.43
2022-08-27T09:36:15.181Z,9.00
2022-08-27T09:38:28.798Z,8.32
2022-08-27T09:42:56.466Z,8.32
2022-08-27T09:44:59.978Z,8.27
2022-08-27T09:47:04.148Z,8.80
2022-08-27T09:49:14.474Z,8.95
2022-08-27T09:51:26.293Z,8.77
2022-08-27T09:53:37.711Z,8.93
2022-08-27T09:55:39.514Z,8.43
2022-08-27T09:57:42.724Z,8.60
2022-08-27T09:59:54.095Z,8.18
2022-08-27T10:01:57.844Z,8.55
2022-08-27T10:04:07.723Z,8.38
2022-08-27T10:06:11.186Z,7.55
2022-08-27T10:08:30.215Z,8.27
2022-08-27T10:10:52.648Z,7.85
2022-08-27T10:13:01.683Z,7.60
2022-08-27T10:15:14.151Z,7.85
2022-08-27T10:17:34.492Z,8.25
2022-08-27T10:20:09.607Z,7.60
2022-08-27T10:22:17.421Z,8.25
2022-08-27T10:24:39.900Z,9.02
2022-08-27T10:27:02.191Z,8.25
2022-08-27T10:29:28.436Z,7.57
2022-08-27T10:31:59.580Z,8.00
2022-08-27T10:34:24.629Z,8.05
2022-08-27T10:36:53.143Z,7.75
2022-08-27T10:39:15.698Z,8.27
2022-08-27T10:41:33.802Z,9.45
2022-08-27T10:44:03.290Z,7.75
2022-08-27T10:46:30.781Z,8.55
2022-08-27T10:48:55.735Z,8.40
2022-08-27T10:51:13.975Z,7.97
2022-08-27T10:53:25.489Z,6.90
2022-08-27T10:55:48.200Z,7.22
2022-08-27T10:58:02.135Z,7.68
2022-08-27T11:00:25.438Z,7.18
2022-08-27T11:02:27.264Z,7.57
2022-08-27T11:04:35.457Z,7.85
2022-08-27T11:06:51.160Z,7.63
2022-08-27T11:09:01.545Z,7.43
2022-08-27T11:13:47.976Z,6.95
2022-08-27T11:15:53.306Z,7.63
2022-08-27T11:18:00.054Z,7.32
2022-08-27T11:20:10.499Z,7.68
2022-08-27T11:22:29.942Z,8.40
2022-08-27T11:24:57.196Z,7.25
2022-08-27T11:27:04.927Z,6.60
2022-08-27T11:29:40.206Z,6.90
2022-08-27T11:31:58.459Z,6.90
2022-08-27T11:34:24.799Z,7.03
2022-08-27T11:36:55.692Z,6.55
2022-08-27T11:39:05.393Z,7.45
2022-08-27T11:41:12.908Z,6.70
2022-08-27T11:43:17.813Z,7.07
2022-08-27T11:45:25.208Z,6.93
2022-08-27T11:47:28.312Z,6.00
2022-08-27T11:49:37.341Z,6.43
2022-08-27T11:51:41.420Z,6.68
2022-08-27T11:53:57.448Z,6.38
2022-08-27T11:56:14.640Z,6.10
2022-08-27T11:58:19.497Z,6.00
2022-08-27T12:00:28.665Z,6.70
2022-08-27T12:02:30.485Z,7.03
2022-08-27T12:04:34.461Z,6.57
2022-08-27T12:06:45.693Z,6.40
2022-08-27T12:08:47.647Z,6.15
2022-08-27T12:11:26.707Z,6.32
2022-08-27T12:14:04.303Z,7.63
2022-08-27T12:16:18.893Z,6.60
2022-08-27T12:18:45.646Z,6.75
2022-08-27T12:21:02.170Z,6.90
2022-08-27T12:23:27.607Z,6.40
2022-08-27T12:25:29.437Z,6.65
2022-08-27T12:27:33.778Z,6.38
2022-08-27T12:29:49.849Z,6.47
2022-08-27T12:32:15.074Z,6.40
2022-08-27T12:34:20.192Z,6.68
2022-08-27T12:36:28.018Z,6.15
2022-08-27T12:38:33.351Z,5.50
2022-08-27T12:41:01.957Z,5.95
2022-08-27T12:43:32.940Z,5.60
2022-08-27T12:45:45.778Z,5.65
2022-08-27T12:47:50.975Z,6.00
2022-08-27T12:50:01.327Z,4.90
2022-08-27T12:52:16.656Z,5.43
2022-08-27T12:54:53.087Z,6.68
2022-08-27T12:57:00.851Z,7.70
2022-08-27T12:59:17.494Z,11.30
2022-08-27T13:01:28.690Z,5.43
2022-08-27T13:03:52.548Z,4.53
2022-08-27T13:05:54.419Z,5.38
2022-08-27T13:07:56.246Z,4.68
2022-08-27T13:10:09.731Z,4.95
2022-08-27T13:12:19.040Z,4.63
2022-08-27T13:14:21.708Z,4.25
2022-08-27T13:16:23.735Z,4.28
2022-08-27T13:18:29.914Z,4.35
2022-08-27T13:20:32.381Z,5.30
2022-08-27T13:22:40.121Z,4.95
2022-08-27T13:24:49.486Z,4.85
2022-08-27T13:26:52.918Z,5.60
2022-08-27T13:28:54.963Z,6.20
2022-08-27T13:31:06.886Z,5.30
2022-08-27T13:33:19.784Z,4.82
2022-08-27T13:35:21.986Z,4.68
2022-08-27T13:37:27.391Z,6.07
2022-08-27T13:39:29.271Z,7.38
2022-08-27T13:41:35.018Z,4.68
2022-08-27T13:43:43.283Z,4.28
2022-08-27T13:45:50.420Z,4.20
2022-08-27T13:47:53.904Z,4.72
2022-08-27T13:50:07.380Z,4.05
2022-08-27T13:52:15.283Z,3.92
2022-08-27T13:54:19.073Z,4.50
2022-08-27T13:56:33.456Z,4.43
2022-08-27T13:58:37.262Z,4.53
2022-08-27T14:00:39.111Z,5.00
2022-08-27T14:02:41.244Z,6.03
2022-08-27T14:05:31.919Z,4.85
2022-08-27T14:07:37.792Z,4.75
2022-08-27T14:09:54.594Z,5.53
2022-08-27T14:12:03.979Z,6.28
2022-08-27T14:14:06.799Z,5.13
2022-08-27T14:16:32.235Z,5.30
2022-08-27T14:18:57.962Z,5.00
2022-08-27T14:20:59.574Z,4.72
2022-08-27T14:23:01.422Z,4.57
2022-08-27T14:25:04.251Z,4.57
2022-08-27T14:27:13.004Z,4.55
2022-08-27T14:29:14.824Z,4.35
2022-08-27T14:31:16.833Z,4.35
2022-08-27T14:33:18.756Z,4.20
2022-08-27T14:35:25.114Z,4.18
2022-08-27T14:37:27.497Z,4.25
2022-08-27T14:39:29.707Z,4.95
2022-08-27T14:41:33.159Z,5.35
2022-08-27T14:43:35.372Z,4.60
2022-08-27T14:45:39.426Z,5.10
2022-08-27T14:47:42.598Z,5.00
2022-08-27T14:49:46.652Z,4.53
2022-08-27T14:51:48.951Z,4.60
2022-08-27T14:53:51.315Z,4.78
2022-08-27T14:55:53.328Z,5.13
2022-08-27T14:57:55.210Z,5.60
2022-08-27T14:59:57.027Z,4.95
2022-08-27T15:02:00.949Z,4.82
2022-08-27T15:04:03.147Z,4.57
2022-08-27T15:06:05.457Z,4.38
2022-08-27T15:08:07.573Z,4.20
2022-08-27T15:10:15.327Z,5.15
2022-08-27T15:12:26.042Z,4.65
2022-08-27T15:14:32.234Z,4.68
2022-08-27T15:16:38.445Z,5.07
2022-08-27T15:18:40.324Z,4.78
2022-08-27T15:20:42.367Z,4.90
2022-08-27T15:22:46.568Z,4.95
2022-08-27T15:24:53.279Z,4.70
2022-08-27T15:26:57.035Z,4.93
2022-08-27T15:29:02.800Z,5.03
2022-08-27T15:31:07.690Z,4.78
2022-08-27T15:33:09.720Z,4.47
2022-08-27T15:35:15.264Z,5.15
2022-08-27T15:37:17.074Z,4.82
2022-08-27T15:39:18.929Z,5.20
2022-08-27T15:41:21.206Z,5.00
2022-08-27T15:43:25.192Z,4.40
2022-08-27T15:45:27.394Z,20.23
2022-08-27T15:47:29.642Z,6.47
2022-08-27T15:49:31.462Z,9.00
2022-08-27T15:51:34.102Z,5.00
2022-08-27T15:53:37.580Z,10.20
2022-08-27T15:55:43.074Z,12.32
2022-08-27T15:57:44.852Z,11.82
2022-08-27T15:59:47.292Z,8.00
2022-08-27T16:01:49.215Z,4.90
2022-08-27T16:03:51.188Z,5.07
2022-08-27T16:05:52.903Z,5.78
2022-08-27T16:07:54.679Z,5.30
2022-08-27T16:09:56.593Z,5.30
2022-08-27T16:11:58.535Z,19.33
2022-08-27T16:14:00.338Z,6.72
2022-08-27T16:16:04.598Z,5.03
2022-08-27T16:18:07.006Z,5.05
2022-08-27T16:20:11.403Z,5.50
2022-08-27T16:22:13.200Z,4.95
2022-08-27T16:24:14.941Z,5.38
2022-08-27T16:26:16.811Z,5.07
2022-08-27T16:28:19.250Z,4.93
2022-08-27T16:30:22.370Z,5.00
2022-08-27T16:32:25.090Z,5.13
2022-08-27T16:34:29.830Z,4.80
2022-08-27T16:36:31.574Z,5.40
2022-08-27T16:38:33.885Z,7.00
2022-08-27T16:40:43.392Z,5.30
2022-08-27T16:42:48.953Z,5.20
2022-08-27T16:44:50.758Z,5.28
2022-08-27T16:46:53.256Z,4.65
2022-08-27T16:49:00.336Z,4.90
2022-08-27T16:51:05.014Z,5.75
2022-08-27T16:53:12.884Z,5.47
2022-08-27T16:55:14.650Z,5.00
2022-08-27T16:57:16.519Z,6.63
2022-08-27T16:59:18.447Z,5.88
2022-08-27T17:01:22.980Z,5.75
2022-08-27T17:03:26.040Z,5.88
2022-08-27T17:05:35.377Z,6.70
2022-08-27T17:07:37.261Z,6.03
2022-08-27T17:09:41.183Z,6.25
2022-08-27T17:11:46.540Z,6.10
2022-08-27T17:13:50.255Z,6.13
2022-08-27T17:15:53.017Z,6.22
2022-08-27T17:17:54.856Z,6.53
2022-08-27T17:19:56.983Z,6.82
2022-08-27T17:22:00.493Z,6.10
2022-08-27T17:24:02.517Z,6.95
2022-08-27T17:26:07.616Z,8.35
2022-08-27T17:28:09.394Z,7.45
2022-08-27T17:30:11.654Z,8.48
2022-08-27T17:32:13.665Z,8.00
2022-08-27T17:34:22.874Z,9.70
2022-08-27T17:36:25.223Z,8.02
2022-08-27T17:38:28.898Z,8.55
2022-08-27T17:40:30.672Z,11.25
2022-08-27T17:42:33.147Z,11.57
2022-08-27T17:44:37.738Z,19.52
2022-08-27T17:46:39.790Z,25.88
2022-08-27T17:48:42.171Z,17.67
2022-08-27T17:50:43.955Z,17.58
2022-08-27T17:52:45.727Z,15.88
2022-08-27T17:54:50.869Z,13.75
2022-08-27T17:56:52.801Z,12.70
2022-08-27T17:58:55.116Z,12.15
2022-08-27T18:00:57.100Z,13.65
2022-08-27T18:02:59.678Z,13.18
2022-08-27T18:05:01.839Z,12.52
2022-08-27T18:07:03.738Z,11.95
2022-08-27T18:09:05.813Z,13.20
2022-08-27T18:11:08.098Z,13.27
2022-08-27T18:13:10.139Z,13.00
2022-08-27T18:15:28.140Z,12.25
2022-08-27T18:17:31.351Z,11.63
2022-08-27T18:19:33.566Z,12.68
2022-08-27T18:21:46.247Z,12.90
2022-08-27T18:23:48.788Z,10.38
2022-08-27T18:25:50.672Z,11.10
2022-08-27T18:27:56.898Z,11.93
2022-08-27T18:29:59.067Z,12.70
2022-08-27T18:32:00.843Z,12.32
2022-08-27T18:34:02.830Z,11.57
2022-08-27T18:36:05.892Z,11.30
2022-08-27T18:38:08.607Z,9.65
2022-08-27T18:40:12.473Z,9.50
2022-08-27T18:42:14.703Z,8.90
2022-08-27T18:44:17.798Z,8.95
2022-08-27T18:46:19.933Z,9.02
2022-08-27T18:48:22.541Z,9.48
2022-08-27T18:50:25.464Z,9.77
2022-08-27T18:52:27.244Z,10.13
2022-08-27T18:54:29.125Z,9.25
2022-08-27T18:56:30.879Z,9.63
2022-08-27T18:58:33.004Z,9.35
2022-08-27T19:00:35.044Z,11.52
2022-08-27T19:02:37.836Z,11.32
2022-08-27T19:04:39.677Z,12.05
2022-08-27T19:06:41.529Z,11.13
2022-08-27T19:08:43.529Z,11.77
2022-08-27T19:10:45.343Z,11.20
2022-08-27T19:12:47.687Z,11.00
2022-08-27T19:14:49.630Z,11.60
2022-08-27T19:16:52.345Z,11.68
2022-08-27T19:18:54.237Z,9.75
2022-08-27T19:20:56.758Z,10.38
2022-08-27T19:22:58.845Z,9.60
2022-08-27T19:25:00.978Z,10.25
2022-08-27T19:27:03.018Z,11.23
2022-08-27T19:29:05.560Z,10.43
2022-08-27T19:31:08.082Z,10.50
2022-08-27T19:33:10.430Z,11.15
2022-08-27T19:35:12.612Z,9.93
2022-08-27T19:37:21.609Z,10.95
2022-08-27T19:39:23.373Z,11.38
2022-08-27T19:41:27.924Z,9.70
2022-08-27T19:43:29.965Z,10.10
2022-08-27T19:45:31.876Z,10.80
2022-08-27T19:47:34.609Z,10.93
2022-08-27T19:49:37.255Z,11.18
2022-08-27T19:51:38.978Z,11.73
2022-08-27T19:53:40.937Z,11.18
2022-08-27T19:55:42.837Z,11.75
2022-08-27T19:57:45.101Z,11.95
2022-08-27T19:59:46.869Z,12.52
2022-08-27T20:01:48.778Z,13.45
2022-08-27T20:03:50.669Z,12.77
2022-08-27T20:05:53.049Z,13.55
2022-08-27T20:07:54.874Z,13.77
2022-08-27T20:09:56.633Z,13.40
2022-08-27T20:12:03.489Z,13.48
2022-08-27T20:14:05.264Z,12.43
2022-08-27T20:16:13.404Z,13.38
2022-08-27T20:18:15.371Z,12.95
2022-08-27T20:20:21.105Z,14.52
2022-08-27T20:22:22.882Z,15.25
2022-08-27T20:24:25.034Z,15.35
2022-08-27T20:26:27.383Z,12.55
2022-08-27T20:28:43.833Z,12.85
2022-08-27T20:30:48.697Z,12.48
2022-08-27T20:32:50.780Z,13.45
2022-08-27T20:34:52.940Z,12.98
2022-08-27T20:36:54.683Z,14.20
2022-08-27T20:38:56.441Z,13.70
2022-08-27T20:40:58.391Z,13.85
2022-08-27T20:43:01.129Z,13.52
2022-08-27T20:45:07.539Z,14.55
2022-08-27T20:47:13.520Z,17.48
2022-08-27T20:49:15.312Z,15.75
2022-08-27T20:51:22.171Z,17.17
2022-08-27T20:53:24.008Z,17.75
2022-08-27T20:55:25.762Z,16.25
2022-08-27T20:57:27.500Z,15.23
2022-08-27T20:59:29.991Z,15.15
2022-08-27T21:01:31.775Z,15.20
2022-08-27T21:03:33.547Z,17.33
2022-08-27T21:05:35.766Z,16.05
2022-08-27T21:07:37.621Z,15.30
2022-08-27T21:09:56.272Z,15.50
2022-08-27T21:11:59.583Z,15.68
2022-08-27T21:14:01.386Z,15.05
2022-08-27T21:16:03.414Z,17.02
2022-08-27T21:18:05.529Z,19.02
2022-08-27T21:20:09.433Z,19.08
2022-08-27T21:22:11.182Z,20.02
2022-08-27T21:24:12.956Z,18.98
2022-08-27T21:26:14.899Z,18.80
2022-08-27T21:28:16.657Z,16.13
2022-08-27T21:30:18.438Z,15.32
2022-08-27T21:32:20.396Z,15.48
2022-08-27T21:34:22.123Z,17.10
2022-08-27T21:36:23.888Z,17.05
2022-08-27T21:38:25.658Z,17.88
2022-08-27T21:40:28.784Z,17.38
2022-08-27T21:42:30.666Z,16.85
2022-08-27T21:44:32.452Z,16.58
2022-08-27T21:46:34.314Z,15.45
2022-08-27T21:48:36.183Z,16.30
2022-08-27T21:50:38.126Z,15.98
2022-08-27T21:52:40.137Z,16.42
2022-08-27T21:54:42.824Z,15.48
2022-08-27T21:56:44.642Z,15.90
2022-08-27T21:58:47.190Z,14.38
2022-08-27T22:00:49.975Z,15.80
2022-08-27T22:02:52.237Z,17.08
2022-08-27T22:04:54.101Z,15.88
2022-08-27T22:06:55.893Z,16.27
2022-08-27T22:08:57.711Z,15.57
2022-08-27T22:10:59.575Z,15.85
2022-08-27T22:13:01.627Z,15.10
2022-08-27T22:15:05.328Z,18.35
2022-08-27T22:17:07.077Z,20.33
2022-08-27T22:19:08.851Z,18.33
2022-08-27T22:21:12.310Z,18.25
2022-08-27T22:23:14.734Z,19.10
2022-08-27T22:25:17.087Z,18.40
2022-08-27T22:27:19.569Z,18.30
2022-08-27T22:29:21.368Z,16.88
2022-08-27T22:31:23.225Z,17.13
2022-08-27T22:33:25.001Z,16.38
2022-08-27T22:35:28.029Z,17.15
2022-08-27T22:37:30.846Z,17.40
2022-08-27T22:39:32.593Z,16.80
2022-08-27T22:41:41.931Z,16.23
2022-08-27T22:43:48.484Z,16.60
2022-08-27T22:45:50.284Z,17.33
2022-08-27T22:47:52.165Z,16.88
2022-08-27T22:49:53.924Z,16.05
2022-08-27T22:51:59.521Z,17.02
2022-08-27T22:54:01.298Z,17.90
2022-08-27T22:56:03.285Z,16.13
2022-08-27T22:58:05.140Z,16.02
2022-08-27T23:00:11.679Z,16.13
2022-08-27T23:02:13.431Z,16.38
2022-08-27T23:04:15.303Z,15.73
2022-08-27T23:06:17.470Z,15.75
2022-08-27T23:08:19.284Z,16.52
2022-08-27T23:10:23.899Z,16.35
2022-08-27T23:12:25.855Z,16.13
2022-08-27T23:14:29.994Z,16.17
2022-08-27T23:16:31.913Z,15.90
2022-08-27T23:18:33.710Z,16.35
2022-08-27T23:20:35.466Z,15.80
2022-08-27T23:22:38.006Z,15.55
2022-08-27T23:24:39.749Z,15.52
2022-08-27T23:26:41.763Z,15.60
2022-08-27T23:28:43.823Z,16.13
2022-08-27T23:30:45.829Z,16.08
2022-08-27T23:32:51.168Z,15.80
2022-08-27T23:34:56.014Z,16.05
2022-08-27T23:36:58.006Z,14.80
2022-08-27T23:38:59.828Z,15.45
2022-08-27T23:41:02.043Z,15.45
2022-08-27T23:43:04.183Z,17.02
2022-08-27T23:45:08.047Z,16.17
2022-08-27T23:47:10.166Z,16.50
2022-08-27T23:49:11.894Z,16.60
2022-08-27T23:51:14.163Z,17.15
2022-08-27T23:53:15.994Z,18.23
2022-08-27T23:55:18.265Z,19.75
2022-08-27T23:57:20.012Z,18.77
2022-08-27T23:59:21.787Z,17.88
